Flight Track Log - Related Links

Times and Time Zones

All times are in EDT time to prevent confusion due to time zone crossing. See the UAL5908 flight status page for this flight to view local times or setup timezone preferences in your user account.

Time Position Orientation Groundspeed Altitude Reporting Facility
EDT Latitude Longitude Course Direction KTS MPH feet Rate Location/Type
Sat 09:40:50 AM 46.7272 -102.7608 186° South 246 283 5,300  Level Minneapolis Center
Sat 09:41:52 AM 46.6639 -102.7814 193° South 235 270 8,100 2,439 Climbing Minneapolis Center
Sat 09:42:53 AM 46.5958 -102.8094 196° South 241 277 10,300 1,475 Climbing Minneapolis Center
Sat 09:43:00 AM 46.6915 -102.8340 180° South  Level Estimated
Sat 09:43:54 AM 46.5064 -102.8175 184° South 291 335 11,100  Level Minneapolis Center
Sat 09:44:00 AM 46.5856 -102.8660 184° South  Level Estimated
Sat 09:44:55 AM 46.4086 -102.8278 184° South 336 387 13,200  Level Minneapolis Center
Sat 09:45:00 AM 46.4801 -102.8318 167° South  Level FlightAware Approximate
Sat 09:45:56 AM 46.3103 -102.8336 182° South 350 403 15,100  Level Minneapolis Center
Sat 09:46:00 AM 46.3744 -102.8646 186° South  Level Estimated
Sat 09:46:57 AM 46.2100 -102.8403 183° South 357 411 16,800  Level Minneapolis Center
Sat 09:47:58 AM 46.0861 -102.8478 182° South 368 423 18,600 2,164 Climbing Minneapolis Center
Sat 09:48:59 AM 45.9836 -102.8550 183° South 370 426 21,200 2,146 Climbing Minneapolis Center
Sat 09:50:01 AM 45.8856 -102.8594 182° South 360 414 23,000 1,805 Climbing Minneapolis Center
Sat 09:51:02 AM 45.7856 -102.8664 183° South 359 413 24,900 1,820 Climbing Minneapolis Center
Sat 09:52:03 AM 45.6875 -102.8758 184° South 355 409 26,700 1,918 Climbing Minneapolis Center
Sat 09:53:04 AM 45.5903 -102.8828 183° South 352 405 28,800 1,918 Climbing Minneapolis Center
Sat 09:54:05 AM 45.5000 -102.8908 184° South 343 395 30,600 2,049 Climbing Minneapolis Center
Sat 09:55:07 AM 45.3931 -102.9003 184° South 329 379 33,000 1,171 Climbing Minneapolis Center
Sat 09:56:08 AM 45.3047 -102.9067 183° South 321 369 33,000  Level Minneapolis Center
Sat 09:57:09 AM 45.2036 -102.9153 183° South 347 399 33,000  Level Minneapolis Center
Sat 09:58:10 AM 45.0919 -102.9250 184° South 384 442 33,000  Level Minneapolis Center
Sat 09:59:12 AM 44.9761 -102.9333 183° South 407 468 33,000  Level Minneapolis Center
Sat 10:00:13 AM 44.8603 -102.9436 184° South 416 479 33,000  Level Minneapolis Center
Sat 10:00:56 AM 44.7711 -102.9511 183° South 411 473 33,000  Level Denver Center
Sat 10:01:57 AM 44.6583 -102.9592 183° South 407 468 33,000  Level Denver Center
Sat 10:02:58 AM 44.5472 -102.9681 183° South 403 464 33,000  Level Denver Center
Sat 10:03:59 AM 44.4361 -102.9767 183° South 401 461 33,000 -293 Level Denver Center
Sat 10:06:02 AM 44.2106 -102.9961 184° South 406 467 32,100 -326 Descending Denver Center
Sat 10:07:03 AM 44.0928 -103.0050 183° South 405 466 32,000 -49 Descending Denver Center
Sat 10:08:04 AM 43.9867 -103.0133 183° South 400 460 32,000  Level Denver Center
Sat 10:09:06 AM 43.8614 -103.0394 189° South 408 470 32,000  Level Denver Center
Sat 10:10:07 AM 43.7522 -103.0642 189° South 411 473 32,000  Level Denver Center
Sat 10:11:08 AM 43.6267 -103.0928 189° South 411 473 32,000  Level Denver Center
Sat 10:12:09 AM 43.5167 -103.1186 190° South 417 480 32,000  Level Denver Center
Sat 10:13:11 AM 43.4072 -103.1442 190° South 418 481 32,000  Level Denver Center
Sat 10:14:13 AM 43.2764 -103.1739 189° South 425 489 32,000  Level Denver Center
Sat 10:15:14 AM 43.1633 -103.2003 190° South 429 494 32,000  Level Denver Center
Sat 10:16:15 AM 43.0311 -103.2303 189° South 429 494 32,000  Level Denver Center
Sat 10:17:17 AM 42.9161 -103.2539 189° South 434 499 32,000  Level Denver Center
Sat 10:18:30 AM 42.8011 -103.2803 190° South 435 501 32,000  Level Denver Center
Sat 10:19:32 AM 42.6472 -103.3156 190° South 437 503 32,000  Level Denver Center
Sat 10:20:34 AM 42.5319 -103.3406 189° South 438 504 32,000  Level Denver Center
Sat 10:21:35 AM 42.3964 -103.3711 189° South 440 506 32,000  Level Denver Center
Sat 10:22:37 AM 42.2808 -103.3961 189° South 439 505 32,000  Level Denver Center
Sat 10:23:38 AM 42.1453 -103.4272 190° South 440 506 32,000  Level Denver Center
Sat 10:24:40 AM 42.0283 -103.4522 189° South 443 510 32,000  Level Denver Center
Sat 10:25:42 AM 41.9117 -103.4772 189° South 441 507 32,000  Level Denver Center
Sat 10:26:43 AM 41.7711 -103.4844 182° South 450 518 32,000  Level Denver Center
Sat 10:27:45 AM 41.6494 -103.4883 181° South 456 525 32,000  Level Denver Center
Sat 10:28:47 AM 41.5064 -103.4914 181° South 459 528 32,000  Level Denver Center
Sat 10:29:48 AM 41.3836 -103.4958 182° South 461 531 32,000  Level Denver Center
Sat 10:30:50 AM 41.2389 -103.4992 181° South 464 534 32,000  Level Denver Center
Sat 10:31:52 AM 41.1147 -103.5006 180° South 465 535 32,000  Level Denver Center
Sat 10:32:54 AM 40.9892 -103.5053 182° South 469 540 32,000 -585 Level Denver Center
Sat 10:33:55 AM 40.8592 -103.5433 192° South 471 542 30,800 -1,073 Descending Denver Center
Sat 10:34:57 AM 40.7433 -103.5989 200° South 449 517 29,800 -1,065 Descending Denver Center
Sat 10:35:59 AM 40.6047 -103.6731 202° Southwest 447 514 28,600 -1,597 Descending Denver Center
Sat 10:37:01 AM 40.5181 -103.7844 224° Southwest 437 503 26,500 -2,081 Descending Denver Center
Sat 10:38:03 AM 40.4378 -103.8936 226° Southwest 419 482 24,300 -2,081 Descending Denver Center
Sat 10:39:05 AM 40.3647 -103.9919 226° Southwest 372 428 22,200 -2,081 Descending Denver Center
Sat 10:40:07 AM 40.2836 -104.0833 221° Southwest 359 413 20,000 -1,951 Descending Denver Center
Sat 10:41:08 AM 40.2136 -104.1589 220° Southwest 329 379 18,200 -1,561 Descending Denver Center
Sat 10:42:10 AM 40.1414 -104.2394 220° Southwest 316 364 16,800 -1,306 Descending Denver Center
Sat 10:43:12 AM 40.0731 -104.3119 219° Southwest 316 364 15,500 -1,016 Descending Denver Center
Sat 10:44:14 AM 40.0064 -104.3853 220° Southwest 315 362 14,700 -968 Descending Denver Center
Sat 10:45:16 AM 39.9344 -104.4622 219° Southwest 311 358 13,500 -1,161 Descending Denver Center
Sat 10:46:18 AM 39.8631 -104.5003 202° Southwest 283 326 12,300 -1,152 Descending Denver Center
Sat 10:47:21 AM 39.7892 -104.5008 180° South 266 306 11,100 -1,152 Descending Denver Center
Sat 10:48:23 AM 39.7119 -104.5025 181° South 257 296 9,900 -1,016 Descending Denver Center
Sat 10:49:25 AM 39.6422 -104.5083 184° South 253 291 9,000 -387 Descending Denver Center
Sat 10:50:27 AM 39.5731 -104.5208 188° South 239 275 9,100  Climbing Denver Center
Sat 10:51:29 AM 39.5878 -104.5797 288° West 207 238 9,000  Descending Denver Center
Sat 10:52:31 AM 39.6383 -104.6158 331° Northwest 206 237 9,100 -242 Climbing Denver Center
Sat 10:53:33 AM 39.6964 -104.6436 340° North 208 239 8,500 -968 Descending Denver Center
Sat 10:54:35 AM 39.7444 -104.6428 North 176 203 7,100 -1,113 Descending Denver Center
Sat 10:55:37 AM 39.7892 -104.6419 North 145 167 6,200 -774 Descending Denver Center
Sat 10:56:39 AM 39.8264 -104.6417 360° North 134 154 5,500 -677 Descending Denver Center
Sat 10:58:00 AM 39.8500 -104.6667 180° South  Level FlightAware Approximate
Sat 11:05:00 AM 39.8617 -104.6732 180° South  Level Estimated
Sat 11:06:00 AM 39.8617 -104.6732 180° South  Level Estimated
Sat 11:07:00 AM 39.8617 -104.6732 180° South  Level Estimated

Login

Don't have an account? Register now (free) for customized features, flight alerts, and more!